Savage, Minnesota
Current Conditions -  °F | °C
As of 9:39 AM on Thursday 23 Oct 2014 (Local Time) from KFCM Reporting Station
Broken Clouds Broken Clouds  
Wind Chill: 55°   Ceiling: 1400
Heat Index: 55°   Visibility: 9mi
Dew Point: 52°   Wind: 5mph
Humidity: 89%   Direction: 190°S
Pressure: 29.99"   Gusts: NA
Location:  44.76°N, 93.35°W
Report Text: KFCM 231439Z 19004KT 9SM BKN014 13/11 A2999 RMK AO2 T01280111
Loading
Personal Weather Stations






























Interactive Weather Map
Tropical Storm Tracking
New forecast layout! Learn more

10-Day Weather Forecast

Advertisements
Track Severe Weather on mobile